Thursday, October 23, 2014
05:11 UTC
  |  Log In   |  Register Free
Airport Search:

Madison Municipal Airport
(KIMS)

Madison Municipal Airport Diagram
No Airport Diagram Available

FAA data valid effective September 18, 2014 - November 13, 2014 (unless otherwise noted).

 
 
 
 
 
 
 
 
 
 
 
 
 
 

Current Aviation Weather for Madison Municipal Airport (KIMS)

METAR data is unavailable for IMS. The nearest METAR location is at KJVY (26.9 nm SW from IMS).

The most recent METAR observation for KJVY was updated at: 0412
METAR Summary (Translated METAR)
KJVY
030145Z 34005KT 10SM CLR 00/M11 A3027 RMK LAST
(26.9 nm SW from KIMS)
KLOU
230353Z 00000KT 10SM CLR 09/04 A3026 RMK AO2 SLP247 T00890044
(33.3 nm SW from KIMS)
TAF
No TAF information found within 50 nm of KLOU
  Airport Weather Conditions for KIMS

Current weather conditions are
not available for IMS


The nearest NOAA weather station
is at LOU, (33.3 nm SW from IMS)
  
 Current Weather at LOU
48° F
Fair
North winds at 0.0 mph
LOU NOAA Radar

Pressure: 30.26 in
Humidity: 74%
Wind: Calm
Dew Point: 39.9°F
Visibility: 10.00 mi


Airport Weather Forecast for KIMS

Translated METAR and TAF for KLOU
Translated METAR for KLOU (0506 UTC 23 October 2014)
found at http://aviationweather.gov/adds/metars/
 
METAR text: KLOU 230453Z 00000KT 10SM CLR 08/04 A3026 RMK AO2 SLP246 T00780039 401610056
Conditions at: KLOU (LOUISVILLE/BOWMN, KY, US) observed 0453 UTC 23 October 2014
Temperature: 7.8°C (46°F)
Dewpoint: 3.9°C (39°F) [RH = 76%]
Pressure (altimeter): 30.26 inches Hg (1024.8 mb)
[Sea-level pressure: 1024.6 mb]
Winds: calm
Visibility: 10 or more miles (16+ km)
Ceiling: at least 12,000 feet AGL
Clouds: sky clear below 12,000 feet AGL
Weather: no significant weather observed at this time
Translated TAF for KLOU

There is no translated TAF available for this airport

Find All Airport Services Find A Hotel Find A Rental Car Find A Golf Course Find A Restaurant $100 Hamburger



FBO's on the Field
FBO Company Facility Photos Services Transportation Aviation Fuel Prices: Prices include tax
Catering Weather Repair Courtesy Rental Type 100LL JetA JetA+ MOGAS 8087
 
City of Madison

This FBO has not yet been rated
FS: Phillips 66
Last Updated: Oct-14
Login to update fuel prices
SS:
Contact City of MadisonMore FBO Information
 
Add another FBO Facility Photos Catering Weather Repair Courtesy Rental Type 100LL JetA JetA+ MOGAS 8087
Services Transportation Aviation Fuel Prices: Prices include tax


model-print
model-print
model-print
model-print